createdAt,value
2018-12-31T00:05:46.175Z,13.00
2018-12-31T00:08:12.331Z,13.53
2018-12-31T00:10:38.491Z,14.00
2018-12-31T00:13:04.796Z,13.53
2018-12-31T00:15:30.956Z,14.00
2018-12-31T00:17:57.109Z,14.03
2018-12-31T00:20:23.296Z,14.03
2018-12-31T00:22:49.556Z,13.03
2018-12-31T00:25:15.716Z,12.20
2018-12-31T00:27:41.903Z,13.20
2018-12-31T00:30:08.150Z,13.17
2018-12-31T00:32:34.304Z,12.93
2018-12-31T00:35:00.709Z,13.23
2018-12-31T00:37:26.862Z,12.90
2018-12-31T00:39:53.025Z,14.03
2018-12-31T00:42:19.218Z,12.47
2018-12-31T00:44:45.383Z,12.70
2018-12-31T00:47:11.526Z,12.27
2018-12-31T00:49:37.710Z,12.63
2018-12-31T00:52:03.872Z,12.83
2018-12-31T00:54:30.132Z,13.00
2018-12-31T00:56:56.326Z,12.93
2018-12-31T00:59:22.484Z,11.97
2018-12-31T01:01:48.631Z,11.37
2018-12-31T01:04:14.831Z,11.33
2018-12-31T01:06:46.847Z,12.54
2018-12-31T01:09:12.991Z,12.40
2018-12-31T01:11:39.182Z,12.60
2018-12-31T01:14:05.348Z,12.53
2018-12-31T01:16:31.498Z,12.67
2018-12-31T01:18:57.693Z,12.93
2018-12-31T01:21:23.851Z,12.10
2018-12-31T01:23:50.054Z,12.67
2018-12-31T01:26:16.344Z,13.73
2018-12-31T01:28:42.496Z,11.50
2018-12-31T01:31:08.643Z,12.37
2018-12-31T01:33:34.823Z,12.83
2018-12-31T01:36:01.081Z,13.87
2018-12-31T01:38:27.338Z,12.90
2018-12-31T01:43:25.787Z,13.87
2018-12-31T01:45:51.935Z,12.97
2018-12-31T01:48:18.119Z,13.40
2018-12-31T01:50:44.278Z,13.30
2018-12-31T01:53:10.437Z,13.83
2018-12-31T01:55:36.620Z,14.33
2018-12-31T02:00:50.458Z,12.63
2018-12-31T02:03:16.615Z,14.03
2018-12-31T02:05:42.764Z,13.30
2018-12-31T02:08:09.023Z,14.57
2018-12-31T02:13:42.643Z,13.87
2018-12-31T02:16:08.895Z,14.30
2018-12-31T02:18:35.054Z,13.57
2018-12-31T02:21:01.246Z,13.67
2018-12-31T02:23:27.532Z,13.60
2018-12-31T02:25:53.651Z,14.13
2018-12-31T02:28:19.836Z,13.47
2018-12-31T02:30:45.995Z,14.03
2018-12-31T02:33:12.142Z,14.50
2018-12-31T02:35:38.332Z,14.87
2018-12-31T02:38:04.493Z,14.33
2018-12-31T02:40:30.648Z,14.67
2018-12-31T02:42:56.843Z,13.27
2018-12-31T02:45:23.000Z,14.60
2018-12-31T02:47:49.164Z,15.63
2018-12-31T02:50:15.445Z,17.07
2018-12-31T02:52:41.600Z,13.57
2018-12-31T02:55:07.770Z,13.43
2018-12-31T02:57:33.947Z,12.87
2018-12-31T03:00:00.279Z,13.73
2018-12-31T03:02:28.147Z,14.10
2018-12-31T03:04:54.347Z,14.60
2018-12-31T03:07:20.500Z,13.87
2018-12-31T03:09:46.657Z,13.50
2018-12-31T03:12:12.843Z,14.00
2018-12-31T03:14:39.000Z,12.87
2018-12-31T03:17:05.153Z,13.10
2018-12-31T03:19:31.345Z,11.90
2018-12-31T03:21:57.504Z,14.17
2018-12-31T03:24:23.659Z,19.33
2018-12-31T03:26:49.901Z,19.90
2018-12-31T03:29:16.053Z,18.03
2018-12-31T03:31:42.202Z,18.47
2018-12-31T03:34:08.491Z,25.83
2018-12-31T03:36:34.649Z,22.73
2018-12-31T03:39:00.805Z,25.83
2018-12-31T03:41:26.996Z,24.20
2018-12-31T03:43:53.156Z,23.97
2018-12-31T03:46:19.306Z,24.60
2018-12-31T03:48:45.486Z,24.63
2018-12-31T03:51:11.751Z,16.23
2018-12-31T03:53:37.903Z,14.90
2018-12-31T03:56:04.195Z,11.00
2018-12-31T03:58:30.453Z,10.23
2018-12-31T04:00:56.610Z,9.70
2018-12-31T04:03:22.797Z,10.27
2018-12-31T04:05:48.953Z,11.27
2018-12-31T04:08:15.103Z,10.97
2018-12-31T04:10:41.295Z,10.73
2018-12-31T04:13:07.453Z,10.57
2018-12-31T04:15:33.606Z,10.83
2018-12-31T04:17:59.797Z,10.67
2018-12-31T04:20:25.951Z,10.83
2018-12-31T04:22:52.102Z,11.47
2018-12-31T04:25:18.289Z,11.40
2018-12-31T04:27:57.089Z,13.33
2018-12-31T04:30:23.305Z,14.33
2018-12-31T04:32:49.526Z,16.07
2018-12-31T04:35:15.686Z,13.87
2018-12-31T04:37:41.876Z,23.33
2018-12-31T04:40:08.025Z,29.73
2018-12-31T04:42:34.392Z,24.83
2018-12-31T04:45:00.583Z,27.83
2018-12-31T04:47:26.742Z,25.63
2018-12-31T04:49:53.098Z,25.67
2018-12-31T04:52:19.450Z,27.53
2018-12-31T04:54:45.746Z,29.90
2018-12-31T04:57:11.903Z,27.37
2018-12-31T04:59:38.097Z,28.90
2018-12-31T05:02:04.240Z,24.03
2018-12-31T05:04:30.385Z,24.50
2018-12-31T05:06:56.574Z,26.77
2018-12-31T05:09:22.734Z,29.37
2018-12-31T05:11:49.937Z,31.30
2018-12-31T05:16:56.024Z,79.87
2018-12-31T05:19:22.180Z,48.00
2018-12-31T05:21:48.444Z,33.73
2018-12-31T05:24:14.646Z,32.10
2018-12-31T05:26:40.794Z,30.70
2018-12-31T05:29:07.049Z,31.00
2018-12-31T05:31:33.234Z,37.10
2018-12-31T05:33:59.387Z,34.00
2018-12-31T05:36:25.545Z,38.43
2018-12-31T05:38:51.888Z,35.73
2018-12-31T05:41:18.038Z,37.13
2018-12-31T05:43:44.199Z,38.23
2018-12-31T05:46:10.400Z,38.97
2018-12-31T05:48:36.557Z,45.00
2018-12-31T05:51:02.839Z,44.73
2018-12-31T05:53:29.012Z,42.73
2018-12-31T05:55:55.168Z,43.77
2018-12-31T05:58:21.329Z,40.00
2018-12-31T06:00:47.527Z,38.73
2018-12-31T06:03:13.678Z,36.83
2018-12-31T06:05:39.831Z,35.00
2018-12-31T06:08:06.008Z,39.37
2018-12-31T06:10:32.172Z,42.50
2018-12-31T06:12:58.323Z,36.80
2018-12-31T06:15:24.505Z,38.17
2018-12-31T06:17:50.659Z,35.33
2018-12-31T06:20:16.816Z,30.67
2018-12-31T06:22:43.025Z,33.27
2018-12-31T06:25:09.293Z,31.90
2018-12-31T06:27:35.449Z,32.23
2018-12-31T06:30:02.267Z,36.07
2018-12-31T06:32:29.963Z,35.17
2018-12-31T06:34:56.144Z,35.30
2018-12-31T06:37:22.339Z,39.20
2018-12-31T06:39:48.490Z,28.10
2018-12-31T06:42:14.650Z,30.23
2018-12-31T06:44:40.897Z,32.87
2018-12-31T06:47:07.061Z,35.93
2018-12-31T06:49:33.217Z,30.53
2018-12-31T06:51:59.408Z,35.00
2018-12-31T06:54:25.667Z,33.17
2018-12-31T06:56:51.820Z,29.37
2018-12-31T06:59:18.004Z,28.50
2018-12-31T07:01:44.150Z,29.80
2018-12-31T07:04:10.409Z,28.17
2018-12-31T07:06:36.599Z,30.47
2018-12-31T07:10:00.044Z,29.27
2018-12-31T07:12:26.232Z,40.60
2018-12-31T07:14:52.392Z,28.90
2018-12-31T07:17:18.546Z,26.60
2018-12-31T07:19:44.733Z,23.43
2018-12-31T07:22:10.996Z,25.33
2018-12-31T07:24:37.151Z,25.57
2018-12-31T07:27:03.350Z,22.17
2018-12-31T07:29:29.507Z,22.70
2018-12-31T07:31:55.725Z,26.87
2018-12-31T07:34:22.010Z,21.80
2018-12-31T07:36:48.170Z,24.17
2018-12-31T07:39:14.333Z,22.17
2018-12-31T07:41:40.525Z,21.23
2018-12-31T07:44:06.679Z,20.20
2018-12-31T07:46:32.832Z,17.30
2018-12-31T07:48:59.031Z,20.37
2018-12-31T07:51:25.189Z,24.37
2018-12-31T07:53:51.343Z,27.20
2018-12-31T07:56:17.528Z,21.50
2018-12-31T07:58:43.689Z,20.07
2018-12-31T08:01:09.841Z,22.43
2018-12-31T08:03:36.032Z,20.73
2018-12-31T08:06:02.374Z,21.00
2018-12-31T08:08:28.676Z,21.33
2018-12-31T08:10:54.868Z,19.17
2018-12-31T08:13:21.156Z,19.47
2018-12-31T08:18:39.827Z,41.53
2018-12-31T08:21:06.117Z,39.37
2018-12-31T08:23:32.264Z,40.30
2018-12-31T08:25:58.573Z,53.93
2018-12-31T08:28:24.742Z,71.10
2018-12-31T08:30:51.063Z,74.23
2018-12-31T08:33:17.316Z,72.43
2018-12-31T08:35:43.497Z,76.23
2018-12-31T08:38:09.644Z,62.23
2018-12-31T08:40:35.819Z,46.27
2018-12-31T08:43:02.126Z,42.33
2018-12-31T08:45:28.284Z,43.87
2018-12-31T08:47:54.582Z,40.67
2018-12-31T08:50:20.736Z,37.17
2018-12-31T08:52:46.887Z,31.00
2018-12-31T08:55:13.186Z,34.17
2018-12-31T08:57:39.323Z,34.23
2018-12-31T09:00:46.925Z,26.73
2018-12-31T09:03:13.079Z,26.60
2018-12-31T09:05:39.231Z,27.20
2018-12-31T09:08:05.428Z,23.47
2018-12-31T09:10:31.597Z,23.17
2018-12-31T09:13:17.757Z,38.07
2018-12-31T09:15:43.985Z,39.53
2018-12-31T09:18:10.147Z,40.67
2018-12-31T09:20:36.452Z,31.43
2018-12-31T09:23:02.735Z,26.30
2018-12-31T09:25:28.895Z,30.93
2018-12-31T09:27:55.102Z,23.40
2018-12-31T09:30:21.359Z,10.83
2018-12-31T09:32:47.518Z,17.03
2018-12-31T09:35:13.773Z,15.73
2018-12-31T09:37:39.933Z,14.27
2018-12-31T09:40:06.098Z,9.63
2018-12-31T09:42:32.288Z,11.77
2018-12-31T09:44:58.440Z,14.40
2018-12-31T09:47:24.592Z,13.77
2018-12-31T09:49:50.788Z,14.00
2018-12-31T09:52:16.944Z,9.07
2018-12-31T09:54:42.995Z,14.60
2018-12-31T09:57:09.202Z,14.23
2018-12-31T09:59:35.356Z,16.50
2018-12-31T10:02:01.511Z,14.67
2018-12-31T10:04:27.688Z,15.40
2018-12-31T10:06:53.841Z,18.63
2018-12-31T10:09:20.100Z,9.60
2018-12-31T10:11:46.419Z,10.97
2018-12-31T10:14:12.578Z,8.83
2018-12-31T10:16:38.855Z,10.83
2018-12-31T10:19:05.036Z,10.43
2018-12-31T10:21:31.213Z,13.80
2018-12-31T10:23:57.381Z,14.80
2018-12-31T10:26:23.574Z,11.13
2018-12-31T10:28:49.736Z,18.07
2018-12-31T10:31:15.903Z,16.67
2018-12-31T10:33:42.205Z,10.90
2018-12-31T10:36:09.316Z,9.47
2018-12-31T10:38:35.603Z,12.57
2018-12-31T10:41:01.774Z,10.23
2018-12-31T10:43:27.938Z,14.13
2018-12-31T10:45:54.099Z,6.07
2018-12-31T10:48:20.298Z,7.43
2018-12-31T10:50:46.457Z,8.87
2018-12-31T10:53:12.615Z,8.70
2018-12-31T10:55:38.930Z,8.87
2018-12-31T10:58:05.086Z,10.00
2018-12-31T11:00:31.251Z,9.47
2018-12-31T11:02:57.442Z,9.77
2018-12-31T11:05:23.699Z,7.10
2018-12-31T11:07:49.862Z,10.13
2018-12-31T11:10:16.193Z,13.30
2018-12-31T11:12:42.489Z,11.63
2018-12-31T11:15:08.990Z,11.03
2018-12-31T11:17:35.203Z,13.30
2018-12-31T11:20:01.362Z,12.13
2018-12-31T11:22:27.624Z,13.60
2018-12-31T11:24:53.808Z,14.43
2018-12-31T11:27:19.968Z,13.33
2018-12-31T11:29:46.127Z,13.20
2018-12-31T11:32:12.315Z,10.43
2018-12-31T11:34:38.476Z,15.57
2018-12-31T11:37:04.843Z,19.83
2018-12-31T11:39:31.041Z,13.90
2018-12-31T11:41:58.135Z,11.67
2018-12-31T11:44:25.252Z,12.53
2018-12-31T11:46:51.461Z,13.20
2018-12-31T11:49:17.732Z,12.90
2018-12-31T11:51:43.892Z,10.97
2018-12-31T11:54:10.083Z,12.63
2018-12-31T11:56:36.233Z,14.23
2018-12-31T11:59:02.495Z,11.63
2018-12-31T12:01:28.802Z,13.20
2018-12-31T12:03:54.963Z,13.10
2018-12-31T12:06:21.239Z,13.53
2018-12-31T12:08:47.539Z,13.53
2018-12-31T12:11:13.704Z,16.83
2018-12-31T12:13:39.864Z,14.40
2018-12-31T12:16:06.204Z,11.60
2018-12-31T12:18:32.356Z,11.83
2018-12-31T12:20:58.523Z,11.33
2018-12-31T12:23:24.763Z,9.17
2018-12-31T12:25:52.835Z,10.20
2018-12-31T12:28:19.008Z,12.03
2018-12-31T12:30:45.291Z,13.30
2018-12-31T12:33:11.452Z,11.57
2018-12-31T12:35:37.715Z,12.17
2018-12-31T12:38:04.021Z,13.17
2018-12-31T12:40:32.078Z,10.63
2018-12-31T12:42:58.236Z,10.23
2018-12-31T12:45:24.702Z,9.47
2018-12-31T12:47:50.864Z,9.33
2018-12-31T12:50:17.029Z,9.27
2018-12-31T12:52:43.333Z,9.93
2018-12-31T12:55:11.394Z,10.43
2018-12-31T12:57:37.555Z,9.80
2018-12-31T13:00:45.170Z,8.90
2018-12-31T13:03:11.337Z,13.73
2018-12-31T13:05:37.502Z,11.80
2018-12-31T13:08:03.796Z,14.90
2018-12-31T13:10:29.967Z,45.97
2018-12-31T13:12:56.134Z,14.70
2018-12-31T13:15:29.684Z,14.90
2018-12-31T13:17:55.839Z,16.70
2018-12-31T13:20:21.998Z,32.40
2018-12-31T13:22:48.292Z,17.13
2018-12-31T13:25:14.459Z,14.13
2018-12-31T13:27:40.621Z,8.37
2018-12-31T13:30:07.115Z,11.73
2018-12-31T13:32:33.382Z,19.23
2018-12-31T13:34:59.530Z,13.27
2018-12-31T13:37:25.723Z,15.37
2018-12-31T13:39:51.890Z,15.23
2018-12-31T13:42:18.051Z,16.03
2018-12-31T13:44:44.321Z,11.30
2018-12-31T13:47:10.488Z,13.00
2018-12-31T13:49:36.792Z,10.50
2018-12-31T13:52:03.104Z,16.37
2018-12-31T13:54:29.270Z,11.13
2018-12-31T13:56:55.440Z,9.57
2018-12-31T13:59:21.764Z,9.73
2018-12-31T14:01:48.272Z,10.57
2018-12-31T14:04:14.582Z,6.93
2018-12-31T14:06:40.783Z,9.17
2018-12-31T14:09:06.960Z,33.40
2018-12-31T14:11:53.017Z,8.73
2018-12-31T14:14:19.172Z,11.90
2018-12-31T14:16:45.339Z,29.33
2018-12-31T14:19:11.539Z,17.37
2018-12-31T14:21:37.850Z,13.27
2018-12-31T14:24:04.188Z,11.50
2018-12-31T14:26:52.019Z,19.37
2018-12-31T14:29:18.180Z,16.87
2018-12-31T14:31:44.432Z,21.63
2018-12-31T14:34:10.817Z,37.77
2018-12-31T14:36:37.008Z,17.70
2018-12-31T14:39:44.707Z,20.10
2018-12-31T14:42:10.966Z,14.60
2018-12-31T14:44:37.315Z,22.87
2018-12-31T14:47:03.517Z,32.03
2018-12-31T14:49:29.679Z,29.50
2018-12-31T14:51:55.833Z,25.80
2018-12-31T14:54:22.048Z,22.70
2018-12-31T14:56:48.203Z,32.67
2018-12-31T14:59:36.045Z,29.70
2018-12-31T15:02:02.233Z,26.40
2018-12-31T15:04:28.383Z,27.70
2018-12-31T15:06:54.580Z,39.03
2018-12-31T15:09:20.735Z,22.17
2018-12-31T15:11:46.885Z,20.03
2018-12-31T15:14:13.178Z,51.47
2018-12-31T15:16:39.447Z,38.83
2018-12-31T15:19:05.599Z,44.27
2018-12-31T15:21:31.785Z,69.00
2018-12-31T15:23:58.057Z,65.93
2018-12-31T15:26:24.317Z,71.57
2018-12-31T15:28:50.500Z,94.80
2018-12-31T15:31:16.652Z,66.60
2018-12-31T15:33:42.805Z,53.67
2018-12-31T15:36:08.988Z,52.03
2018-12-31T15:38:35.138Z,54.53
2018-12-31T15:41:03.322Z,59.83
2018-12-31T15:43:29.544Z,62.73
2018-12-31T15:45:55.704Z,57.30
2018-12-31T15:48:21.859Z,55.17
2018-12-31T15:50:48.054Z,47.77
2018-12-31T15:53:14.314Z,71.73
2018-12-31T15:55:40.471Z,80.70
2018-12-31T15:58:06.659Z,67.90
2018-12-31T16:00:32.811Z,94.00
2018-12-31T16:02:58.967Z,200.30
2018-12-31T16:05:25.161Z,102.70
2018-12-31T16:07:51.219Z,92.57
2018-12-31T16:10:17.475Z,81.67
2018-12-31T16:12:45.675Z,83.60
2018-12-31T16:15:11.833Z,115.30
2018-12-31T16:17:38.034Z,123.33
2018-12-31T16:20:45.625Z,85.13
2018-12-31T16:23:11.793Z,99.60
2018-12-31T16:25:38.071Z,102.37
2018-12-31T16:28:04.287Z,100.70
2018-12-31T16:30:30.443Z,83.90
2018-12-31T16:32:56.602Z,90.73
2018-12-31T16:35:22.784Z,106.20
2018-12-31T16:37:48.937Z,83.83
2018-12-31T16:40:15.100Z,102.63
2018-12-31T16:42:41.291Z,115.07
2018-12-31T16:45:07.621Z,114.23
2018-12-31T16:47:33.757Z,118.77
2018-12-31T16:50:00.167Z,79.07
2018-12-31T16:52:26.310Z,80.93
2018-12-31T16:54:52.465Z,79.67
2018-12-31T16:57:18.656Z,90.90
2018-12-31T16:59:44.907Z,74.37
2018-12-31T17:02:11.069Z,54.10
2018-12-31T17:04:39.171Z,105.60
2018-12-31T17:07:05.323Z,117.00
2018-12-31T17:09:31.592Z,88.60
2018-12-31T17:11:57.809Z,155.17
2018-12-31T17:14:24.084Z,92.60
2018-12-31T17:16:50.248Z,45.07
2018-12-31T17:19:16.431Z,112.90
2018-12-31T17:21:43.103Z,130.90
2018-12-31T17:24:09.267Z,112.73
2018-12-31T17:26:35.451Z,107.77
2018-12-31T17:29:01.600Z,65.90
2018-12-31T17:31:27.758Z,60.20
2018-12-31T17:33:53.967Z,81.40
2018-12-31T17:36:22.140Z,54.90
2018-12-31T17:38:49.062Z,57.23
2018-12-31T17:41:36.248Z,60.70
2018-12-31T17:44:02.408Z,65.03
2018-12-31T17:49:16.348Z,59.20
2018-12-31T17:51:42.511Z,62.97
2018-12-31T17:54:08.673Z,57.23
2018-12-31T17:56:34.879Z,70.67
2018-12-31T17:59:02.949Z,134.60
2018-12-31T18:01:29.103Z,47.43
2018-12-31T18:03:55.296Z,49.93
2018-12-31T18:06:21.455Z,52.63
2018-12-31T18:08:47.620Z,100.20
2018-12-31T18:11:13.921Z,62.07
2018-12-31T18:13:41.978Z,55.63
2018-12-31T18:16:08.138Z,59.67
2018-12-31T18:18:34.325Z,52.33
2018-12-31T18:21:00.492Z,47.43
2018-12-31T18:23:26.653Z,43.77
2018-12-31T18:25:52.850Z,37.13
2018-12-31T18:28:19.106Z,45.47
2018-12-31T18:30:45.347Z,40.03
2018-12-31T18:33:11.682Z,62.67
2018-12-31T18:35:37.839Z,83.03
2018-12-31T18:38:03.997Z,99.73
2018-12-31T18:40:30.286Z,33.97
2018-12-31T18:42:56.448Z,25.77
2018-12-31T18:45:22.807Z,26.07
2018-12-31T18:47:49.039Z,39.50
2018-12-31T18:50:15.292Z,53.60
2018-12-31T18:52:41.454Z,64.00
2018-12-31T18:55:07.655Z,63.47
2018-12-31T18:57:33.812Z,95.30
2018-12-31T19:00:01.868Z,66.07
2018-12-31T19:02:28.074Z,61.53
2018-12-31T19:04:54.237Z,57.33
2018-12-31T19:07:20.397Z,43.60
2018-12-31T19:09:46.586Z,52.70
2018-12-31T19:12:12.852Z,56.33
2018-12-31T19:14:39.007Z,64.00
2018-12-31T19:17:05.196Z,146.47
2018-12-31T19:19:31.346Z,107.87
2018-12-31T19:21:57.512Z,113.23
2018-12-31T19:24:23.688Z,85.83
2018-12-31T19:26:49.838Z,269.53
2018-12-31T19:29:15.988Z,56.60
2018-12-31T19:31:44.293Z,50.47
2018-12-31T19:34:12.139Z,58.20
2018-12-31T19:36:38.294Z,69.97
2018-12-31T19:39:45.918Z,56.40
2018-12-31T19:42:12.097Z,46.97
2018-12-31T19:44:38.257Z,51.20
2018-12-31T19:47:04.557Z,94.83
2018-12-31T19:49:30.723Z,118.80
2018-12-31T19:51:56.883Z,43.03
2018-12-31T19:54:25.064Z,41.53
2018-12-31T19:56:51.225Z,65.80
2018-12-31T19:59:17.375Z,64.63
2018-12-31T20:01:43.575Z,58.63
2018-12-31T20:04:09.741Z,58.63
2018-12-31T20:06:35.914Z,50.20
2018-12-31T20:09:57.762Z,208.17
2018-12-31T20:12:13.473Z,361.90
2018-12-31T20:14:42.443Z,53.67
2018-12-31T20:17:08.767Z,42.93
2018-12-31T20:19:34.930Z,54.57
2018-12-31T20:24:53.740Z,92.00
2018-12-31T20:27:19.901Z,66.17
2018-12-31T20:29:46.072Z,76.13
2018-12-31T20:32:12.268Z,55.37
2018-12-31T20:34:38.441Z,55.13
2018-12-31T20:37:04.596Z,52.70
2018-12-31T20:39:30.890Z,55.47
2018-12-31T20:41:57.054Z,52.37
2018-12-31T20:44:23.216Z,54.60
2018-12-31T20:46:49.414Z,56.00
2018-12-31T20:49:15.582Z,60.07
2018-12-31T20:51:41.757Z,48.90
2018-12-31T20:54:07.977Z,41.27
2018-12-31T20:56:34.142Z,48.43
2018-12-31T20:59:00.401Z,47.40
2018-12-31T21:01:26.797Z,52.13
2018-12-31T21:03:52.933Z,49.17
2018-12-31T21:06:19.088Z,55.77
2018-12-31T21:08:45.272Z,50.47
2018-12-31T21:11:11.440Z,160.33
2018-12-31T21:13:37.595Z,61.43
2018-12-31T21:16:05.487Z,70.00
2018-12-31T21:18:31.843Z,53.57
2018-12-31T21:20:58.022Z,55.23
2018-12-31T21:23:24.293Z,48.50
2018-12-31T21:25:50.452Z,59.33
2018-12-31T21:28:16.613Z,52.07
2018-12-31T21:30:42.814Z,45.87
2018-12-31T21:33:10.867Z,43.30
2018-12-31T21:35:37.027Z,54.80
2018-12-31T21:38:03.326Z,44.37
2018-12-31T21:40:29.490Z,49.30
2018-12-31T21:42:55.654Z,52.50
2018-12-31T21:45:21.969Z,50.90
2018-12-31T21:47:48.229Z,46.63
2018-12-31T21:50:27.844Z,61.37
2018-12-31T21:52:54.014Z,38.63
2018-12-31T21:55:20.165Z,34.07
2018-12-31T21:57:46.362Z,50.80
2018-12-31T22:00:12.512Z,56.60
2018-12-31T22:02:40.575Z,52.17
2018-12-31T22:05:06.761Z,50.93
2018-12-31T22:07:32.914Z,58.20
2018-12-31T22:09:59.077Z,75.10
2018-12-31T22:12:25.276Z,143.40
2018-12-31T22:14:51.428Z,156.80
2018-12-31T22:17:17.583Z,140.13
2018-12-31T22:19:43.781Z,109.50
2018-12-31T22:22:09.944Z,125.77
2018-12-31T22:24:36.199Z,138.23
2018-12-31T22:27:02.488Z,131.80
2018-12-31T22:29:28.649Z,356.83
2018-12-31T22:31:54.809Z,465.00
2018-12-31T22:34:21.202Z,409.43
2018-12-31T22:36:47.351Z,327.87
2018-12-31T22:39:13.505Z,306.27
2018-12-31T22:41:39.698Z,313.93
2018-12-31T22:44:05.855Z,237.53
2018-12-31T22:46:32.003Z,212.17
2018-12-31T22:48:58.398Z,155.00
2018-12-31T22:51:37.910Z,202.47
2018-12-31T22:54:04.098Z,200.53
2018-12-31T22:56:30.254Z,252.20
2018-12-31T22:58:56.428Z,231.17
2018-12-31T23:01:22.733Z,146.13
2018-12-31T23:03:48.888Z,111.70
2018-12-31T23:06:15.041Z,63.00
2018-12-31T23:08:41.255Z,77.77
2018-12-31T23:11:07.413Z,71.17
2018-12-31T23:13:33.567Z,60.53
2018-12-31T23:15:59.757Z,54.27
2018-12-31T23:18:26.109Z,43.73
2018-12-31T23:20:52.276Z,37.40
2018-12-31T23:23:18.597Z,35.60
2018-12-31T23:25:44.756Z,36.20
2018-12-31T23:28:11.800Z,38.17
2018-12-31T23:30:37.999Z,38.87
2018-12-31T23:33:04.279Z,36.57
2018-12-31T23:35:31.313Z,34.17
2018-12-31T23:37:58.632Z,43.07
2018-12-31T23:40:24.790Z,46.47
2018-12-31T23:42:50.949Z,39.60
2018-12-31T23:45:17.136Z,37.87
2018-12-31T23:47:43.293Z,67.37
2018-12-31T23:50:11.344Z,46.53
2018-12-31T23:52:37.547Z,103.93
2018-12-31T23:58:17.533Z,148.53
